createdAt,value
2022-10-03T00:02:04.623Z,3.72
2022-10-03T00:05:02.339Z,3.80
2022-10-03T00:07:33.259Z,3.67
2022-10-03T00:12:04.443Z,2.78
2022-10-03T00:14:23.192Z,3.90
2022-10-03T00:16:57.413Z,3.88
2022-10-03T00:19:31.838Z,4.10
2022-10-03T00:22:18.507Z,3.63
2022-10-03T00:24:32.640Z,3.95
2022-10-03T00:26:52.876Z,4.13
2022-10-03T00:29:31.412Z,4.50
2022-10-03T00:31:40.036Z,4.50
2022-10-03T00:34:07.211Z,4.53
2022-10-03T00:36:18.230Z,4.97
2022-10-03T00:38:38.560Z,4.40
2022-10-03T00:40:42.875Z,5.13
2022-10-03T00:43:13.572Z,4.47
2022-10-03T00:45:38.737Z,3.97
2022-10-03T00:47:51.054Z,3.85
2022-10-03T00:50:35.345Z,4.90
2022-10-03T00:52:55.414Z,4.28
2022-10-03T00:55:23.444Z,3.90
2022-10-03T00:57:52.896Z,4.43
2022-10-03T01:00:16.110Z,4.70
2022-10-03T01:02:29.991Z,4.18
2022-10-03T01:04:59.432Z,3.63
2022-10-03T01:07:27.907Z,4.20
2022-10-03T01:09:38.914Z,3.67
2022-10-03T01:12:13.840Z,4.05
2022-10-03T01:14:49.304Z,4.45
2022-10-03T01:16:58.923Z,3.88
2022-10-03T01:19:36.392Z,4.93
2022-10-03T01:21:50.133Z,4.53
2022-10-03T01:23:52.350Z,4.57
2022-10-03T01:26:06.544Z,4.22
2022-10-03T01:29:06.466Z,3.70
2022-10-03T01:31:14.793Z,4.55
2022-10-03T01:33:30.798Z,3.95
2022-10-03T01:35:48.066Z,5.68
2022-10-03T01:38:20.796Z,3.75
2022-10-03T01:40:40.811Z,3.70
2022-10-03T01:42:51.484Z,3.93
2022-10-03T01:45:13.167Z,3.85
2022-10-03T01:47:24.628Z,3.88
2022-10-03T01:49:46.513Z,4.00
2022-10-03T01:52:09.642Z,4.07
2022-10-03T01:54:20.946Z,4.40
2022-10-03T01:56:45.061Z,4.38
2022-10-03T01:59:12.168Z,4.43
2022-10-03T02:01:24.132Z,4.28
2022-10-03T02:03:31.481Z,4.05
2022-10-03T02:06:00.733Z,4.10
2022-10-03T02:08:22.077Z,4.60
2022-10-03T02:10:29.950Z,4.20
2022-10-03T02:12:35.119Z,4.18
2022-10-03T02:15:03.239Z,4.18
2022-10-03T02:17:14.391Z,4.55
2022-10-03T02:19:36.689Z,4.47
2022-10-03T02:21:50.650Z,4.68
2022-10-03T02:24:16.571Z,4.78
2022-10-03T02:26:33.375Z,5.40
2022-10-03T02:29:08.133Z,5.03
2022-10-03T02:31:50.930Z,4.38
2022-10-03T02:34:17.255Z,3.97
2022-10-03T02:36:36.562Z,4.35
2022-10-03T02:39:23.145Z,4.85
2022-10-03T02:41:52.507Z,4.00
2022-10-03T02:44:26.187Z,4.32
2022-10-03T02:46:49.909Z,4.50
2022-10-03T02:49:31.381Z,4.93
2022-10-03T02:51:35.719Z,4.28
2022-10-03T02:54:15.393Z,4.10
2022-10-03T02:56:44.400Z,4.35
2022-10-03T02:59:08.339Z,4.57
2022-10-03T03:01:41.239Z,4.88
2022-10-03T03:04:17.062Z,4.78
2022-10-03T03:06:37.222Z,4.97
2022-10-03T03:09:12.950Z,4.65
2022-10-03T03:11:26.542Z,5.50
2022-10-03T03:13:54.606Z,5.13
2022-10-03T03:16:05.454Z,5.40
2022-10-03T03:18:22.540Z,4.45
2022-10-03T03:20:45.804Z,4.40
2022-10-03T03:23:05.542Z,4.75
2022-10-03T03:25:12.751Z,5.32
2022-10-03T03:27:48.156Z,4.65
2022-10-03T03:29:52.535Z,4.60
2022-10-03T03:32:14.025Z,5.20
2022-10-03T03:34:25.541Z,5.13
2022-10-03T03:36:46.740Z,5.15
2022-10-03T03:39:16.009Z,5.63
2022-10-03T03:41:27.164Z,5.15
2022-10-03T03:43:47.589Z,5.13
2022-10-03T03:46:00.552Z,5.20
2022-10-03T03:48:14.666Z,5.72
2022-10-03T03:50:31.492Z,5.32
2022-10-03T03:52:54.482Z,5.93
2022-10-03T03:54:56.186Z,5.13
2022-10-03T03:57:34.702Z,5.30
2022-10-03T03:59:54.856Z,5.75
2022-10-03T04:02:33.644Z,5.53
2022-10-03T04:04:52.193Z,4.53
2022-10-03T04:07:17.238Z,3.78
2022-10-03T04:09:49.635Z,4.50
2022-10-03T04:12:00.248Z,4.20
2022-10-03T04:14:35.032Z,3.63
2022-10-03T04:17:07.838Z,3.78
2022-10-03T04:19:56.516Z,4.75
2022-10-03T04:22:31.337Z,4.20
2022-10-03T04:24:54.346Z,3.80
2022-10-03T04:27:18.597Z,4.75
2022-10-03T04:29:43.574Z,4.00
2022-10-03T04:32:29.418Z,4.30
2022-10-03T04:35:14.262Z,3.92
2022-10-03T04:37:25.665Z,3.72
2022-10-03T04:39:42.726Z,4.80
2022-10-03T04:42:02.005Z,4.32
2022-10-03T04:44:18.659Z,4.65
2022-10-03T04:46:46.883Z,4.80
2022-10-03T04:49:12.206Z,4.88
2022-10-03T04:51:46.649Z,5.75
2022-10-03T04:54:15.465Z,4.88
2022-10-03T04:57:05.294Z,4.70
2022-10-03T04:59:27.652Z,4.10
2022-10-03T05:01:43.796Z,3.63
2022-10-03T05:04:21.157Z,3.33
2022-10-03T05:06:38.208Z,3.92
2022-10-03T05:09:04.626Z,3.60
2022-10-03T05:11:22.805Z,3.53
2022-10-03T05:13:39.594Z,4.65
2022-10-03T05:15:53.284Z,4.85
2022-10-03T05:18:10.066Z,4.15
2022-10-03T05:20:21.296Z,4.22
2022-10-03T05:22:38.597Z,4.65
2022-10-03T05:24:45.177Z,4.72
2022-10-03T05:26:59.045Z,6.00
2022-10-03T05:29:10.768Z,4.93
2022-10-03T05:31:31.296Z,5.53
2022-10-03T05:33:49.867Z,4.63
2022-10-03T05:36:03.599Z,3.92
2022-10-03T05:38:26.925Z,3.95
2022-10-03T05:40:35.340Z,3.70
2022-10-03T05:42:51.326Z,4.13
2022-10-03T05:45:05.587Z,3.65
2022-10-03T05:47:45.854Z,5.93
2022-10-03T05:49:58.297Z,5.55
2022-10-03T05:52:09.078Z,6.72
2022-10-03T05:56:23.872Z,6.03
2022-10-03T05:58:46.666Z,5.20
2022-10-03T06:01:00.733Z,5.30
2022-10-03T06:03:39.801Z,5.38
2022-10-03T06:06:09.045Z,5.68
2022-10-03T06:08:35.269Z,4.82
2022-10-03T06:10:51.073Z,5.38
2022-10-03T06:12:58.511Z,5.43
2022-10-03T06:15:19.428Z,6.07
2022-10-03T06:19:50.483Z,5.28
2022-10-03T06:22:17.061Z,4.65
2022-10-03T06:24:46.708Z,5.07
2022-10-03T06:27:06.298Z,5.38
2022-10-03T06:29:46.878Z,4.65
2022-10-03T06:32:26.023Z,4.93
2022-10-03T06:34:36.477Z,4.80
2022-10-03T06:36:55.532Z,4.65
2022-10-03T06:39:11.755Z,4.60
2022-10-03T06:41:41.464Z,5.15
2022-10-03T06:43:58.210Z,5.55
2022-10-03T06:46:12.226Z,5.05
2022-10-03T06:48:35.815Z,4.97
2022-10-03T06:51:23.511Z,4.78
2022-10-03T06:53:42.588Z,5.43
2022-10-03T06:55:59.357Z,4.78
2022-10-03T06:58:58.842Z,5.30
2022-10-03T07:01:14.238Z,4.35
2022-10-03T07:03:37.577Z,4.50
2022-10-03T07:06:20.801Z,4.88
2022-10-03T07:08:52.778Z,4.55
2022-10-03T07:11:19.321Z,4.47
2022-10-03T07:13:37.133Z,5.03
2022-10-03T07:16:08.425Z,4.85
2022-10-03T07:18:24.686Z,5.20
2022-10-03T07:20:47.427Z,5.13
2022-10-03T07:23:32.499Z,5.10
2022-10-03T07:25:58.024Z,5.10
2022-10-03T07:28:28.314Z,5.05
2022-10-03T07:31:13.459Z,5.50
2022-10-03T07:33:23.942Z,5.63
2022-10-03T07:36:02.736Z,6.03
2022-10-03T07:38:42.729Z,5.70
2022-10-03T07:41:18.645Z,5.07
2022-10-03T07:43:32.024Z,7.03
2022-10-03T07:45:45.790Z,6.68
2022-10-03T07:48:13.365Z,5.53
2022-10-03T07:50:45.410Z,5.72
2022-10-03T07:53:18.131Z,5.22
2022-10-03T07:55:37.605Z,6.05
2022-10-03T07:57:51.761Z,5.75
2022-10-03T08:00:02.916Z,6.32
2022-10-03T08:02:19.542Z,5.47
2022-10-03T08:04:45.293Z,6.28
2022-10-03T08:07:02.726Z,6.65
2022-10-03T08:09:26.240Z,6.10
2022-10-03T08:11:53.706Z,6.07
2022-10-03T08:14:14.105Z,6.28
2022-10-03T08:16:43.667Z,5.60
2022-10-03T08:18:51.300Z,6.70
2022-10-03T08:20:56.151Z,7.22
2022-10-03T08:23:35.442Z,6.60
2022-10-03T08:26:01.620Z,7.70
2022-10-03T08:28:41.851Z,6.97
2022-10-03T08:31:08.164Z,6.50
2022-10-03T08:33:35.309Z,6.32
2022-10-03T08:36:10.814Z,6.07
2022-10-03T08:38:58.951Z,6.55
2022-10-03T08:41:24.538Z,5.72
2022-10-03T08:43:44.895Z,6.53
2022-10-03T08:46:11.108Z,6.18
2022-10-03T08:48:31.473Z,7.47
2022-10-03T08:50:44.324Z,6.32
2022-10-03T08:53:23.630Z,6.57
2022-10-03T08:56:22.820Z,5.88
2022-10-03T08:59:07.264Z,5.30
2022-10-03T09:01:41.305Z,6.60
2022-10-03T09:04:07.161Z,6.22
2022-10-03T09:07:17.220Z,4.95
2022-10-03T09:09:51.944Z,4.88
2022-10-03T09:12:24.233Z,3.92
2022-10-03T09:14:43.825Z,4.47
2022-10-03T09:17:14.177Z,3.88
2022-10-03T09:19:25.036Z,4.65
2022-10-03T09:23:52.635Z,4.10
2022-10-03T09:26:06.680Z,3.47
2022-10-03T09:28:26.268Z,3.70
2022-10-03T09:31:05.125Z,3.33
2022-10-03T09:33:31.837Z,3.55
2022-10-03T09:35:42.454Z,3.75
2022-10-03T09:38:21.618Z,3.40
2022-10-03T09:40:44.981Z,3.70
2022-10-03T09:43:26.305Z,2.88
2022-10-03T09:45:40.076Z,2.33
2022-10-03T09:48:15.758Z,2.70
2022-10-03T09:50:58.458Z,3.38
2022-10-03T09:53:02.624Z,2.75
2022-10-03T09:55:43.961Z,3.42
2022-10-03T09:57:54.710Z,2.63
2022-10-03T10:02:13.389Z,3.15
2022-10-03T10:04:54.413Z,3.50
2022-10-03T10:07:34.615Z,3.58
2022-10-03T10:09:50.959Z,3.22
2022-10-03T10:12:30.867Z,4.15
2022-10-03T10:15:03.636Z,3.03
2022-10-03T10:17:45.133Z,3.20
2022-10-03T10:20:04.899Z,2.40
2022-10-03T10:22:16.948Z,2.67
2022-10-03T10:24:46.778Z,3.08
2022-10-03T10:27:03.742Z,3.63
2022-10-03T10:29:34.461Z,2.95
2022-10-03T10:31:54.869Z,2.53
2022-10-03T10:34:31.717Z,3.22
2022-10-03T10:36:54.246Z,3.55
2022-10-03T10:39:24.383Z,2.38
2022-10-03T10:42:15.174Z,2.30
2022-10-03T10:44:54.097Z,2.15
2022-10-03T10:47:33.026Z,1.77
2022-10-03T10:49:36.133Z,3.10
2022-10-03T10:51:40.375Z,2.40
2022-10-03T10:54:06.179Z,2.70
2022-10-03T10:56:43.087Z,2.17
2022-10-03T10:59:22.596Z,2.58
2022-10-03T11:01:37.526Z,2.33
2022-10-03T11:04:03.845Z,2.30
2022-10-03T11:06:59.405Z,3.03
2022-10-03T11:09:38.492Z,2.50
2022-10-03T11:12:24.104Z,1.95
2022-10-03T11:14:53.026Z,2.60
2022-10-03T11:17:19.964Z,1.95
2022-10-03T11:19:45.944Z,1.83
2022-10-03T11:22:36.810Z,1.90
2022-10-03T11:24:56.569Z,2.30
2022-10-03T11:27:52.517Z,1.67
2022-10-03T11:30:12.632Z,2.20
2022-10-03T11:32:48.095Z,2.35
2022-10-03T11:35:07.806Z,1.50
2022-10-03T11:37:38.609Z,1.25
2022-10-03T11:39:55.083Z,1.55
2022-10-03T11:42:11.729Z,1.40
2022-10-03T11:44:34.451Z,1.67
2022-10-03T11:46:36.099Z,2.00
2022-10-03T11:48:50.231Z,1.23
2022-10-03T11:50:56.561Z,1.15
2022-10-03T11:53:15.287Z,1.08
2022-10-03T11:55:32.439Z,0.98
2022-10-03T11:57:44.027Z,0.98
2022-10-03T12:00:03.127Z,0.80
2022-10-03T12:02:17.779Z,0.82
2022-10-03T12:04:37.465Z,0.73
2022-10-03T12:07:17.522Z,1.30
2022-10-03T12:09:36.249Z,1.35
2022-10-03T12:12:15.755Z,0.70
2022-10-03T12:14:29.648Z,1.13
2022-10-03T12:17:00.769Z,0.80
2022-10-03T12:19:30.927Z,1.77
2022-10-03T12:22:14.776Z,0.90
2022-10-03T12:24:34.628Z,1.02
2022-10-03T12:26:37.599Z,0.98
2022-10-03T12:28:48.959Z,1.15
2022-10-03T12:31:15.928Z,1.13
2022-10-03T12:34:03.959Z,1.05
2022-10-03T12:36:21.905Z,1.08
2022-10-03T12:38:47.636Z,1.55
2022-10-03T12:41:57.032Z,1.15
2022-10-03T12:44:20.937Z,1.42
2022-10-03T12:46:38.187Z,1.15
2022-10-03T12:49:27.771Z,0.75
2022-10-03T12:52:00.433Z,0.85
2022-10-03T12:54:17.531Z,1.08
2022-10-03T12:56:22.055Z,1.10
2022-10-03T12:58:37.948Z,0.90
2022-10-03T13:00:56.077Z,1.33
2022-10-03T13:03:20.721Z,0.85
2022-10-03T13:05:34.129Z,1.17
2022-10-03T13:07:52.622Z,0.85
2022-10-03T13:10:15.463Z,0.90
2022-10-03T13:12:46.052Z,1.17
2022-10-03T13:15:06.775Z,1.20
2022-10-03T13:17:19.358Z,1.42
2022-10-03T13:19:30.788Z,1.58
2022-10-03T13:21:46.478Z,1.08
2022-10-03T13:24:07.326Z,1.00
2022-10-03T13:26:21.045Z,1.30
2022-10-03T13:28:31.631Z,1.27
2022-10-03T13:30:54.217Z,1.10
2022-10-03T13:33:12.304Z,0.88
2022-10-03T13:35:56.625Z,0.80
2022-10-03T13:38:32.718Z,1.25
2022-10-03T13:40:48.296Z,0.70
2022-10-03T13:42:53.682Z,0.90
2022-10-03T13:45:03.711Z,0.93
2022-10-03T13:47:07.969Z,1.57
2022-10-03T13:49:25.674Z,0.90
2022-10-03T13:51:27.881Z,0.90
2022-10-03T13:53:53.334Z,0.95
2022-10-03T13:56:01.815Z,1.23
2022-10-03T13:59:13.044Z,0.95
2022-10-03T14:03:52.896Z,0.50
2022-10-03T14:06:36.749Z,0.70
2022-10-03T14:08:57.420Z,1.13
2022-10-03T14:11:22.840Z,1.00
2022-10-03T14:13:43.520Z,0.70
2022-10-03T14:16:06.705Z,1.23
2022-10-03T14:18:53.128Z,1.52
2022-10-03T14:21:28.669Z,1.17
2022-10-03T14:23:39.300Z,1.20
2022-10-03T14:25:48.257Z,0.90
2022-10-03T14:28:03.562Z,1.15
2022-10-03T14:30:21.727Z,1.25
2022-10-03T14:32:47.662Z,0.63
2022-10-03T14:35:21.957Z,1.98
2022-10-03T14:37:47.369Z,1.30
2022-10-03T14:39:49.541Z,1.35
2022-10-03T14:42:12.148Z,1.30
2022-10-03T14:44:16.137Z,1.08
2022-10-03T14:46:21.656Z,0.95
2022-10-03T14:48:31.652Z,0.93
2022-10-03T14:50:34.484Z,1.33
2022-10-03T14:52:45.524Z,1.27
2022-10-03T14:54:51.534Z,1.15
2022-10-03T14:56:54.752Z,0.93
2022-10-03T14:59:14.277Z,0.93
2022-10-03T15:01:20.702Z,1.00
2022-10-03T15:03:33.709Z,0.90
2022-10-03T15:05:36.255Z,0.93
2022-10-03T15:07:40.471Z,1.20
2022-10-03T15:09:56.242Z,0.75
2022-10-03T15:12:36.273Z,0.80
2022-10-03T15:14:43.408Z,1.38
2022-10-03T15:16:53.987Z,0.77
2022-10-03T15:19:10.539Z,1.25
2022-10-03T15:21:16.344Z,0.82
2022-10-03T15:23:38.215Z,1.50
2022-10-03T15:25:42.167Z,0.90
2022-10-03T15:27:46.708Z,0.63
2022-10-03T15:29:57.330Z,1.50
2022-10-03T15:31:59.799Z,0.90
2022-10-03T15:34:06.736Z,1.27
2022-10-03T15:36:28.273Z,0.60
2022-10-03T15:38:38.578Z,1.00
2022-10-03T15:40:47.873Z,1.05
2022-10-03T15:43:00.889Z,0.70
2022-10-03T15:45:06.980Z,1.55
2022-10-03T15:47:19.138Z,0.85
2022-10-03T15:49:27.566Z,0.77
2022-10-03T15:51:32.850Z,0.80
2022-10-03T15:53:39.548Z,0.70
2022-10-03T15:55:46.749Z,0.80
2022-10-03T15:57:52.723Z,1.00
2022-10-03T16:00:02.796Z,0.65
2022-10-03T16:04:38.366Z,0.95
2022-10-03T16:07:05.418Z,1.30
2022-10-03T16:09:49.216Z,1.17
2022-10-03T16:11:56.603Z,0.70
2022-10-03T16:14:17.022Z,0.80
2022-10-03T16:16:36.895Z,1.00
2022-10-03T16:18:53.762Z,2.13
2022-10-03T16:20:58.802Z,0.65
2022-10-03T16:23:12.019Z,1.45
2022-10-03T16:25:19.318Z,0.88
2022-10-03T16:27:24.722Z,1.02
2022-10-03T16:29:34.983Z,0.77
2022-10-03T16:31:51.696Z,1.05
2022-10-03T16:34:03.074Z,0.80
2022-10-03T16:36:07.425Z,1.10
2022-10-03T16:38:17.846Z,1.10
2022-10-03T16:40:22.378Z,0.88
2022-10-03T16:42:29.076Z,0.85
2022-10-03T16:44:48.855Z,0.80
2022-10-03T16:46:52.549Z,0.70
2022-10-03T16:49:19.785Z,1.10
2022-10-03T16:51:36.096Z,1.00
2022-10-03T16:53:42.638Z,1.45
2022-10-03T16:56:00.445Z,1.17
2022-10-03T16:58:17.974Z,1.00
2022-10-03T17:00:37.994Z,0.82
2022-10-03T17:02:40.266Z,1.00
2022-10-03T17:04:47.554Z,0.95
2022-10-03T17:06:52.051Z,1.00
2022-10-03T17:09:06.784Z,0.98
2022-10-03T17:11:09.063Z,0.98
2022-10-03T17:13:23.218Z,1.50
2022-10-03T17:15:31.059Z,0.80
2022-10-03T17:17:48.202Z,1.40
2022-10-03T17:20:07.693Z,1.17
2022-10-03T17:22:30.092Z,1.35
2022-10-03T17:24:44.698Z,1.38
2022-10-03T17:26:50.177Z,0.90
2022-10-03T17:29:21.671Z,1.00
2022-10-03T17:31:23.385Z,1.35
2022-10-03T17:33:41.548Z,1.27
2022-10-03T17:36:26.359Z,0.80
2022-10-03T17:38:49.720Z,1.20
2022-10-03T17:40:58.596Z,1.05
2022-10-03T17:43:16.090Z,1.10
2022-10-03T17:45:30.706Z,1.27
2022-10-03T17:48:01.466Z,1.45
2022-10-03T17:50:17.858Z,1.08
2022-10-03T17:52:23.624Z,1.52
2022-10-03T17:54:39.092Z,0.80
2022-10-03T17:56:45.738Z,1.17
2022-10-03T17:59:07.910Z,1.27
2022-10-03T18:01:16.388Z,1.10
2022-10-03T18:03:53.422Z,1.52
2022-10-03T18:06:01.577Z,1.85
2022-10-03T18:08:11.498Z,1.17
2022-10-03T18:10:23.270Z,0.80
2022-10-03T18:12:35.420Z,1.38
2022-10-03T18:14:58.013Z,1.38
2022-10-03T18:17:02.783Z,1.65
2022-10-03T18:19:22.834Z,1.40
2022-10-03T18:22:03.719Z,1.37
2022-10-03T18:24:32.414Z,1.90
2022-10-03T18:26:38.320Z,0.98
2022-10-03T18:29:18.915Z,1.48
2022-10-03T18:31:22.662Z,1.10
2022-10-03T18:33:36.098Z,1.30
2022-10-03T18:35:38.154Z,1.88
2022-10-03T18:37:39.729Z,1.17
2022-10-03T18:39:44.025Z,2.03
2022-10-03T18:41:49.205Z,1.92
2022-10-03T18:44:00.247Z,1.73
2022-10-03T18:46:19.795Z,1.30
2022-10-03T18:49:03.040Z,1.40
2022-10-03T18:51:39.237Z,1.77
2022-10-03T18:53:55.281Z,1.58
2022-10-03T18:56:06.002Z,1.77
2022-10-03T19:00:42.548Z,1.98
2022-10-03T19:02:54.424Z,1.67
2022-10-03T19:05:22.658Z,4.22
2022-10-03T19:07:29.894Z,1.80
2022-10-03T19:09:41.492Z,1.65
2022-10-03T19:12:09.331Z,1.75
2022-10-03T19:14:13.647Z,2.20
2022-10-03T19:17:07.696Z,1.60
2022-10-03T19:19:29.019Z,2.30
2022-10-03T19:21:37.327Z,1.52
2022-10-03T19:23:43.695Z,1.95
2022-10-03T19:25:51.807Z,1.80
2022-10-03T19:28:05.487Z,1.83
2022-10-03T19:30:08.727Z,2.00
2022-10-03T19:32:31.704Z,1.80
2022-10-03T19:34:39.402Z,2.15
2022-10-03T19:36:42.259Z,2.78
2022-10-03T19:38:46.967Z,2.65
2022-10-03T19:41:01.263Z,2.40
2022-10-03T19:43:42.040Z,3.03
2022-10-03T19:46:09.258Z,2.13
2022-10-03T19:48:12.397Z,2.47
2022-10-03T19:50:36.574Z,3.03
2022-10-03T19:52:42.051Z,2.08
2022-10-03T19:54:49.036Z,2.17
2022-10-03T19:56:50.943Z,2.65
2022-10-03T19:59:17.811Z,2.10
2022-10-03T20:01:20.245Z,2.63
2022-10-03T20:03:34.353Z,2.67
2022-10-03T20:05:43.272Z,3.10
2022-10-03T20:07:50.431Z,2.83
2022-10-03T20:10:03.732Z,3.00
2022-10-03T20:12:11.439Z,2.17
2022-10-03T20:14:28.635Z,2.75
2022-10-03T20:16:41.862Z,2.72
2022-10-03T20:18:47.198Z,2.72
2022-10-03T20:21:04.028Z,3.17
2022-10-03T20:23:08.154Z,3.35
2022-10-03T20:25:43.904Z,3.83
2022-10-03T20:27:51.502Z,4.03
2022-10-03T20:32:28.748Z,3.40
2022-10-03T20:34:31.538Z,3.40
2022-10-03T20:36:40.508Z,3.53
2022-10-03T20:39:28.950Z,3.63
2022-10-03T20:41:40.049Z,3.33
2022-10-03T20:43:53.650Z,3.58
2022-10-03T20:46:17.113Z,3.75
2022-10-03T20:48:24.874Z,3.78
2022-10-03T20:50:30.974Z,4.25
2022-10-03T20:52:33.654Z,4.15
2022-10-03T20:54:48.811Z,3.72
2022-10-03T20:57:02.795Z,4.55
2022-10-03T20:59:13.269Z,3.60
2022-10-03T21:01:18.657Z,4.13
2022-10-03T21:03:47.188Z,3.83
2022-10-03T21:05:55.610Z,4.20
2022-10-03T21:08:04.547Z,3.97
2022-10-03T21:10:28.685Z,3.78
2022-10-03T21:12:44.868Z,4.78
2022-10-03T21:14:51.639Z,5.20
2022-10-03T21:16:55.699Z,4.75
2022-10-03T21:19:16.789Z,4.50
2022-10-03T21:21:37.423Z,4.45
2022-10-03T21:23:57.728Z,4.35
2022-10-03T21:26:01.614Z,4.18
2022-10-03T21:28:04.521Z,4.57
2022-10-03T21:30:12.172Z,4.55
2022-10-03T21:32:25.622Z,4.60
2022-10-03T21:34:33.745Z,4.47
2022-10-03T21:37:11.571Z,4.90
2022-10-03T21:39:56.904Z,4.40
2022-10-03T21:42:15.072Z,5.00
2022-10-03T21:44:30.831Z,4.68
2022-10-03T21:46:44.441Z,5.38
2022-10-03T21:49:05.171Z,4.68
2022-10-03T21:51:38.105Z,5.25
2022-10-03T21:54:04.866Z,5.57
2022-10-03T21:56:23.668Z,5.60
2022-10-03T21:59:12.338Z,4.90
2022-10-03T22:01:32.531Z,6.05
2022-10-03T22:03:52.120Z,5.35
2022-10-03T22:06:23.521Z,5.65
2022-10-03T22:08:30.184Z,6.75
2022-10-03T22:10:36.907Z,5.88
2022-10-03T22:12:45.846Z,6.38
2022-10-03T22:14:53.748Z,5.80
2022-10-03T22:17:01.363Z,6.47
2022-10-03T22:19:27.485Z,6.32
2022-10-03T22:21:56.062Z,6.07
2022-10-03T22:24:07.797Z,6.47
2022-10-03T22:26:18.464Z,6.63
2022-10-03T22:29:02.209Z,5.80
2022-10-03T22:31:27.870Z,6.57
2022-10-03T22:33:35.533Z,5.85
2022-10-03T22:35:53.071Z,6.35
2022-10-03T22:37:56.981Z,6.70
2022-10-03T22:40:00.177Z,6.90
2022-10-03T22:42:03.974Z,6.47
2022-10-03T22:44:09.951Z,6.90
2022-10-03T22:46:16.429Z,6.32
2022-10-03T22:48:26.143Z,6.45
2022-10-03T22:50:33.981Z,6.88
2022-10-03T22:52:43.069Z,6.60
2022-10-03T22:54:47.298Z,7.28
2022-10-03T22:56:55.511Z,6.93
2022-10-03T22:59:08.274Z,5.95
2022-10-03T23:01:10.261Z,6.60
2022-10-03T23:03:21.280Z,6.80
2022-10-03T23:05:32.101Z,5.97
2022-10-03T23:09:50.476Z,6.10
2022-10-03T23:11:55.309Z,6.57
2022-10-03T23:13:59.296Z,6.22
2022-10-03T23:16:32.650Z,6.28
2022-10-03T23:18:40.196Z,7.00
2022-10-03T23:20:51.152Z,6.30
2022-10-03T23:22:58.603Z,6.10
2022-10-03T23:25:05.816Z,6.28
2022-10-03T23:28:00.654Z,6.43
2022-10-03T23:30:11.661Z,7.40
2022-10-03T23:32:33.355Z,6.53
2022-10-03T23:34:37.245Z,6.20
2022-10-03T23:37:00.722Z,6.70
2022-10-03T23:39:35.103Z,5.93
2022-10-03T23:41:45.021Z,6.60
2022-10-03T23:43:57.006Z,6.22
2022-10-03T23:48:19.778Z,6.00
2022-10-03T23:50:34.250Z,6.43
2022-10-03T23:52:48.065Z,6.50
2022-10-03T23:54:51.794Z,5.43
2022-10-03T23:57:00.164Z,5.70
2022-10-03T23:59:05.254Z,6.40
